Time;durP1;ratioP1;P1;durP2;ratioP2;P2;SDS_P1;SDS_P2;PMS_P1;PMS_P2;Temp;Humidity;BMP_temperature;BMP_pressure;BME280_temperature;BME280_humidity;BME280_pressure;Samples;Min_cycle;Max_cycle;Signal;HPM_P1;HPM_P2
2022/10/08 00:01:05;;;;;;;14.70;3.35;;;;;;;;;;5034341;28;20716;-67
2022/10/08 00:03:35;;;;;;;12.05;2.13;;;;;;;;;;5030126;28;20235;-67
2022/10/08 00:06:05;;;;;;;10.60;2.63;;;;;;;;;;5032484;28;20264;-67
2022/10/08 00:08:34;;;;;;;11.55;2.28;;;;;;;;;;5048375;28;20231;-66
2022/10/08 00:11:02;;;;;;;9.63;2.50;;;;;;;;;;5031312;28;20212;-67
2022/10/08 00:13:39;;;;;;;8.18;1.95;;;;;;;;;;5031279;28;20209;-67
2022/10/08 00:16:12;;;;;;;9.85;2.65;;;;;;;;;;5042996;28;20199;-66
2022/10/08 00:18:42;;;;;;;8.80;2.22;;;;;;;;;;5043414;28;20193;-67
2022/10/08 00:21:13;;;;;;;9.32;2.55;;;;;;;;;;5034072;28;20565;-66
2022/10/08 00:23:39;;;;;;;10.95;2.38;;;;;;;;;;5040801;28;20170;-66
2022/10/08 00:26:06;;;;;;;12.98;2.20;;;;;;;;;;5032704;28;20289;-66
2022/10/08 00:28:33;;;;;;;13.68;2.67;;;;;;;;;;5041687;28;20179;-67
2022/10/08 00:31:05;;;;;;;10.32;2.22;;;;;;;;;;5039979;28;20230;-66
2022/10/08 00:33:30;;;;;;;15.30;2.97;;;;;;;;;;5042676;28;20269;-66
2022/10/08 00:35:59;;;;;;;10.90;2.70;;;;;;;;;;5040747;28;20269;-66
2022/10/08 00:38:25;;;;;;;10.55;2.33;;;;;;;;;;5044560;28;20235;-66
2022/10/08 00:40:50;;;;;;;10.30;2.67;;;;;;;;;;5050398;28;20202;-66
2022/10/08 00:43:16;;;;;;;8.25;2.05;;;;;;;;;;5039325;28;20817;-66
2022/10/08 00:45:46;;;;;;;13.02;2.45;;;;;;;;;;5035399;28;20185;-66
2022/10/08 00:48:19;;;;;;;8.77;2.42;;;;;;;;;;5045028;28;20284;-66
2022/10/08 00:50:46;;;;;;;10.10;3.00;;;;;;;;;;5047736;28;20186;-66
2022/10/08 00:53:11;;;;;;;11.70;2.25;;;;;;;;;;5040202;28;20699;-66
2022/10/08 00:55:39;;;;;;;13.57;2.20;;;;;;;;;;5032533;28;20189;-66
2022/10/08 00:58:11;;;;;;;9.63;2.00;;;;;;;;;;5044298;28;20581;-67
2022/10/08 01:00:37;;;;;;;11.60;2.17;;;;;;;;;;5036833;28;20285;-66
2022/10/08 01:03:02;;;;;;;16.13;2.75;;;;;;;;;;5038244;28;20280;-66
2022/10/08 01:05:53;;;;;;;10.55;2.60;;;;;;;;;;5031677;28;20217;-66
2022/10/08 01:08:44;;;;;;;10.35;2.33;;;;;;;;;;5030808;28;20722;-66
2022/10/08 01:11:41;;;;;;;8.68;2.30;;;;;;;;;;5032016;28;20178;-67
2022/10/08 01:14:26;;;;;;;10.85;2.65;;;;;;;;;;5030827;28;20297;-66
2022/10/08 01:17:32;;;;;;;14.90;2.50;;;;;;;;;;5044154;28;20189;-66
2022/10/08 01:20:03;;;;;;;11.95;2.72;;;;;;;;;;5040340;28;20311;-66
2022/10/08 01:22:47;;;;;;;11.57;2.75;;;;;;;;;;5048741;28;20185;-66
2022/10/08 01:25:33;;;;;;;17.30;2.85;;;;;;;;;;5030807;28;20591;-66
2022/10/08 01:28:20;;;;;;;10.25;2.70;;;;;;;;;;5032556;28;20245;-66
2022/10/08 01:30:51;;;;;;;10.82;2.92;;;;;;;;;;5032862;28;20309;-66
2022/10/08 01:33:23;;;;;;;10.18;2.88;;;;;;;;;;5038158;28;20202;-67
2022/10/08 01:35:56;;;;;;;13.35;2.90;;;;;;;;;;5033614;28;20192;-67
2022/10/08 01:38:24;;;;;;;13.48;2.72;;;;;;;;;;5032985;28;20622;-67
2022/10/08 01:40:51;;;;;;;11.50;2.42;;;;;;;;;;5043216;28;20246;-67
2022/10/08 01:43:21;;;;;;;11.13;3.10;;;;;;;;;;5041154;28;20222;-67
2022/10/08 01:45:55;;;;;;;14.07;3.53;;;;;;;;;;5028437;28;20181;-67
2022/10/08 01:48:27;;;;;;;12.40;3.90;;;;;;;;;;5048156;28;20570;-67
2022/10/08 01:50:57;;;;;;;13.23;4.22;;;;;;;;;;5044401;28;20192;-67
2022/10/08 01:53:27;;;;;;;13.88;5.07;;;;;;;;;;5030380;28;20287;-67
2022/10/08 01:55:54;;;;;;;15.13;5.95;;;;;;;;;;5041905;28;20205;-68
2022/10/08 01:58:35;;;;;;;15.57;6.15;;;;;;;;;;5035284;28;20265;-67
2022/10/08 02:01:12;;;;;;;19.30;6.32;;;;;;;;;;5036113;28;20264;-67
2022/10/08 02:04:31;;;;;;;14.90;5.88;;;;;;;;;;5029651;28;20185;-67
2022/10/08 02:06:24;;;;;;;12.82;5.40;;;;;;;;;;5028597;28;20198;-68
2022/10/08 02:08:50;;;;;;;17.92;5.55;;;;;;;;;;5036686;28;20599;-67
2022/10/08 02:11:15;;;;;;;12.93;4.93;;;;;;;;;;5035986;28;20253;-67
2022/10/08 02:13:42;;;;;;;20.73;6.07;;;;;;;;;;5027046;28;20273;-67
2022/10/08 02:16:11;;;;;;;14.30;6.03;;;;;;;;;;5045153;28;20186;-67
2022/10/08 02:18:46;;;;;;;15.50;6.07;;;;;;;;;;5043221;28;20189;-67
2022/10/08 02:21:18;;;;;;;17.73;6.60;;;;;;;;;;5030602;28;20216;-67
2022/10/08 02:23:51;;;;;;;20.48;6.60;;;;;;;;;;5041566;28;20823;-67
2022/10/08 02:26:24;;;;;;;19.38;6.00;;;;;;;;;;5029755;28;20733;-68
2022/10/08 02:28:56;;;;;;;10.15;5.55;;;;;;;;;;5032983;28;20649;-67
2022/10/08 02:31:32;;;;;;;12.60;5.00;;;;;;;;;;5030247;28;20222;-67
2022/10/08 02:34:11;;;;;;;12.25;5.25;;;;;;;;;;5038339;28;20193;-67
2022/10/08 02:37:05;;;;;;;15.38;5.22;;;;;;;;;;5040275;28;20275;-67
2022/10/08 02:39:34;;;;;;;11.23;4.65;;;;;;;;;;5027989;28;20214;-67
2022/10/08 02:42:04;;;;;;;13.77;5.25;;;;;;;;;;5032742;28;20270;-67
2022/10/08 02:44:47;;;;;;;14.25;5.28;;;;;;;;;;5036676;28;20194;-67
2022/10/08 02:47:17;;;;;;;14.95;5.22;;;;;;;;;;5044361;28;20730;-67
2022/10/08 02:49:51;;;;;;;15.68;5.22;;;;;;;;;;5048440;28;20244;-68
2022/10/08 02:52:19;;;;;;;12.13;5.57;;;;;;;;;;5033689;28;20181;-67
2022/10/08 02:54:47;;;;;;;12.98;5.40;;;;;;;;;;5046166;28;20173;-67
2022/10/08 02:57:20;;;;;;;13.85;6.00;;;;;;;;;;5046743;28;20234;-67
2022/10/08 02:59:45;;;;;;;12.52;5.28;;;;;;;;;;5039215;28;20309;-67
2022/10/08 03:02:18;;;;;;;16.65;6.55;;;;;;;;;;5030013;28;20260;-67
2022/10/08 03:04:50;;;;;;;14.07;6.53;;;;;;;;;;5050622;28;20220;-68
2022/10/08 03:07:16;;;;;;;15.82;6.10;;;;;;;;;;5051179;28;20313;-67
2022/10/08 03:09:45;;;;;;;18.27;7.10;;;;;;;;;;5040301;28;20375;-67
2022/10/08 03:12:11;;;;;;;18.67;6.30;;;;;;;;;;5032231;28;20684;-67
2022/10/08 03:14:42;;;;;;;12.65;5.70;;;;;;;;;;5044778;28;20219;-67
2022/10/08 03:17:09;;;;;;;13.32;5.75;;;;;;;;;;5050148;28;20633;-67
2022/10/08 03:19:34;;;;;;;17.55;6.38;;;;;;;;;;5034547;28;20694;-67
2022/10/08 03:22:01;;;;;;;20.50;5.70;;;;;;;;;;5032581;28;20185;-67
2022/10/08 03:24:26;;;;;;;16.05;5.50;;;;;;;;;;5041327;28;20189;-67
2022/10/08 03:26:52;;;;;;;11.57;5.38;;;;;;;;;;5038617;28;20185;-68
2022/10/08 03:29:17;;;;;;;14.20;5.97;;;;;;;;;;5043467;28;20182;-68
2022/10/08 03:31:43;;;;;;;16.88;5.93;;;;;;;;;;5043205;28;20717;-68
2022/10/08 03:34:08;;;;;;;12.60;5.75;;;;;;;;;;5047388;28;20177;-68
2022/10/08 03:36:33;;;;;;;13.57;5.40;;;;;;;;;;5050737;28;20199;-67
2022/10/08 03:38:59;;;;;;;13.60;5.18;;;;;;;;;;5046577;28;20190;-68
2022/10/08 03:41:24;;;;;;;13.98;5.38;;;;;;;;;;5036397;28;20190;-68
2022/10/08 03:43:49;;;;;;;9.77;4.30;;;;;;;;;;5037336;28;20190;-68
2022/10/08 03:46:15;;;;;;;10.60;5.00;;;;;;;;;;5032102;28;20186;-68
2022/10/08 03:48:41;;;;;;;15.80;4.53;;;;;;;;;;5040968;28;20486;-68
2022/10/08 03:51:11;;;;;;;13.82;5.40;;;;;;;;;;5034143;28;20652;-68
2022/10/08 03:53:38;;;;;;;17.90;5.85;;;;;;;;;;5034389;28;20240;-68
2022/10/08 03:56:13;;;;;;;13.18;5.00;;;;;;;;;;5033450;28;20395;-68
2022/10/08 03:58:39;;;;;;;12.07;4.82;;;;;;;;;;5044245;28;20716;-68
2022/10/08 04:01:07;;;;;;;15.60;4.20;;;;;;;;;;5032595;28;20194;-68
2022/10/08 04:03:32;;;;;;;12.27;4.28;;;;;;;;;;5029554;28;20206;-68
2022/10/08 04:05:58;;;;;;;9.77;4.10;;;;;;;;;;5031804;28;20711;-68
2022/10/08 04:08:24;;;;;;;11.60;4.30;;;;;;;;;;5033806;28;20192;-67
2022/10/08 04:10:49;;;;;;;17.13;5.28;;;;;;;;;;5036230;28;20704;-68
2022/10/08 04:13:16;;;;;;;9.60;4.40;;;;;;;;;;5037566;28;20189;-68
2022/10/08 04:15:42;;;;;;;15.07;5.32;;;;;;;;;;5036614;28;20585;-68
2022/10/08 04:18:11;;;;;;;9.63;4.57;;;;;;;;;;5031579;28;20277;-68
2022/10/08 04:20:37;;;;;;;13.85;4.85;;;;;;;;;;5034931;28;20256;-68
2022/10/08 04:23:03;;;;;;;12.02;5.38;;;;;;;;;;5039143;28;20185;-68
2022/10/08 04:25:28;;;;;;;10.85;4.88;;;;;;;;;;5036631;28;20216;-68
2022/10/08 04:27:53;;;;;;;12.82;5.40;;;;;;;;;;5032319;28;20190;-68
2022/10/08 04:30:19;;;;;;;13.35;5.60;;;;;;;;;;5034559;28;20275;-68
2022/10/08 04:32:44;;;;;;;15.23;5.32;;;;;;;;;;5046392;28;20583;-68
2022/10/08 04:35:09;;;;;;;11.30;5.45;;;;;;;;;;5035261;28;20634;-68
2022/10/08 04:37:34;;;;;;;13.50;5.78;;;;;;;;;;5030734;28;20194;-68
2022/10/08 04:40:00;;;;;;;15.32;6.10;;;;;;;;;;5031140;28;20328;-68
2022/10/08 04:42:25;;;;;;;16.02;6.25;;;;;;;;;;5031651;28;20190;-68
2022/10/08 04:44:51;;;;;;;18.50;6.80;;;;;;;;;;5033212;28;20190;-68
2022/10/08 04:47:16;;;;;;;17.13;7.28;;;;;;;;;;5035240;28;20177;-68
2022/10/08 04:49:42;;;;;;;19.08;7.93;;;;;;;;;;5036462;28;20182;-68
2022/10/08 04:52:07;;;;;;;16.27;8.65;;;;;;;;;;5029021;28;20190;-67
2022/10/08 04:54:33;;;;;;;25.02;10.30;;;;;;;;;;5042411;28;20537;-68
2022/10/08 04:56:58;;;;;;;21.83;10.73;;;;;;;;;;5035768;28;20193;-67
2022/10/08 04:59:23;;;;;;;19.92;10.15;;;;;;;;;;5028949;28;20636;-67
2022/10/08 05:01:49;;;;;;;22.92;11.65;;;;;;;;;;5036125;28;20213;-67
2022/10/08 05:04:14;;;;;;;20.27;12.27;;;;;;;;;;5033152;28;20530;-67
2022/10/08 05:06:39;;;;;;;21.15;13.07;;;;;;;;;;5036803;28;20178;-67
2022/10/08 05:09:05;;;;;;;21.33;12.65;;;;;;;;;;5035786;28;20590;-67
2022/10/08 05:11:31;;;;;;;25.25;14.00;;;;;;;;;;5035496;28;20178;-67
2022/10/08 05:13:58;;;;;;;23.98;12.82;;;;;;;;;;5032964;28;20560;-68
2022/10/08 05:16:24;;;;;;;26.00;13.68;;;;;;;;;;5033730;28;20193;-66
2022/10/08 05:18:50;;;;;;;19.92;12.57;;;;;;;;;;5028958;28;20182;-67
2022/10/08 05:21:24;;;;;;;23.98;15.38;;;;;;;;;;5037896;28;20209;-67
2022/10/08 05:23:55;;;;;;;25.55;14.20;;;;;;;;;;5030083;28;20591;-66
2022/10/08 05:26:23;;;;;;;28.25;14.68;;;;;;;;;;5038910;28;20182;-67
2022/10/08 05:28:54;;;;;;;25.98;14.63;;;;;;;;;;5037169;28;20536;-66
2022/10/08 05:31:19;;;;;;;29.05;15.40;;;;;;;;;;5035058;28;20265;-68
2022/10/08 05:33:45;;;;;;;29.27;15.13;;;;;;;;;;5031370;28;20709;-66
2022/10/08 05:36:19;;;;;;;28.67;15.35;;;;;;;;;;5036172;28;20653;-67
2022/10/08 05:38:45;;;;;;;25.20;14.90;;;;;;;;;;5028726;28;20613;-69
2022/10/08 05:41:18;;;;;;;32.08;15.35;;;;;;;;;;5035108;28;20205;-69
2022/10/08 05:43:44;;;;;;;31.02;15.70;;;;;;;;;;5033809;28;20269;-67
2022/10/08 05:46:10;;;;;;;26.35;15.43;;;;;;;;;;5042051;28;20539;-66
2022/10/08 05:48:36;;;;;;;25.30;13.70;;;;;;;;;;5030329;28;20236;-66
2022/10/08 05:51:12;;;;;;;24.73;14.90;;;;;;;;;;5036170;28;20653;-66
2022/10/08 05:53:40;;;;;;;28.60;16.10;;;;;;;;;;5035112;28;20554;-67
2022/10/08 05:56:08;;;;;;;31.98;16.17;;;;;;;;;;5043045;28;20265;-69
2022/10/08 05:58:35;;;;;;;28.83;16.48;;;;;;;;;;5038432;28;20192;-67
2022/10/08 06:01:03;;;;;;;35.50;17.35;;;;;;;;;;5030835;28;20653;-66
2022/10/08 06:03:28;;;;;;;29.88;16.95;;;;;;;;;;4333832;28;10000713;-67
2022/10/08 06:05:54;;;;;;;28.95;17.05;;;;;;;;;;5033037;28;20193;-67
2022/10/08 06:08:20;;;;;;;37.35;18.42;;;;;;;;;;5037293;28;20664;-67
2022/10/08 06:10:50;;;;;;;37.65;19.08;;;;;;;;;;5038801;28;20756;-68
2022/10/08 06:13:16;;;;;;;35.80;18.08;;;;;;;;;;5037215;28;20193;-67
2022/10/08 06:15:42;;;;;;;33.38;18.35;;;;;;;;;;5044442;28;20256;-67
2022/10/08 06:18:07;;;;;;;32.38;18.25;;;;;;;;;;5029404;28;20272;-67
2022/10/08 06:20:35;;;;;;;28.33;17.05;;;;;;;;;;5029806;28;20691;-67
2022/10/08 06:23:01;;;;;;;32.15;18.98;;;;;;;;;;5028277;28;20273;-68
2022/10/08 06:25:26;;;;;;;32.05;18.55;;;;;;;;;;5029402;28;20264;-68
2022/10/08 06:27:51;;;;;;;36.50;18.83;;;;;;;;;;5028971;28;20186;-67
2022/10/08 06:30:17;;;;;;;32.72;18.60;;;;;;;;;;5032229;28;20283;-67
2022/10/08 06:32:42;;;;;;;33.28;18.50;;;;;;;;;;5026833;28;20209;-67
2022/10/08 06:35:08;;;;;;;36.10;19.90;;;;;;;;;;5042797;28;20521;-67
2022/10/08 06:37:33;;;;;;;36.95;20.38;;;;;;;;;;5038423;28;20516;-67
2022/10/08 06:39:58;;;;;;;33.33;19.10;;;;;;;;;;5035135;28;20228;-67
2022/10/08 06:42:23;;;;;;;32.20;19.40;;;;;;;;;;5032170;28;20232;-67
2022/10/08 06:44:49;;;;;;;30.70;17.65;;;;;;;;;;5032476;28;20193;-67
2022/10/08 06:47:14;;;;;;;33.95;19.67;;;;;;;;;;5032799;28;20238;-67
2022/10/08 06:49:39;;;;;;;29.98;19.27;;;;;;;;;;5029967;28;20175;-67
2022/10/08 06:52:05;;;;;;;35.58;19.33;;;;;;;;;;5028552;28;20269;-68
2022/10/08 06:54:30;;;;;;;30.92;17.60;;;;;;;;;;5036505;28;20177;-68
2022/10/08 06:56:56;;;;;;;32.88;17.95;;;;;;;;;;5035100;28;20186;-67
2022/10/08 06:59:21;;;;;;;30.73;17.67;;;;;;;;;;5033184;28;20190;-68
2022/10/08 07:01:46;;;;;;;31.05;16.70;;;;;;;;;;5032840;28;20677;-68
2022/10/08 07:04:12;;;;;;;26.30;16.20;;;;;;;;;;5033621;28;20188;-68
2022/10/08 07:06:37;;;;;;;31.52;15.95;;;;;;;;;;5041345;28;20178;-68
2022/10/08 07:09:03;;;;;;;24.15;15.10;;;;;;;;;;5027239;28;20586;-68
2022/10/08 07:11:30;;;;;;;28.35;14.75;;;;;;;;;;5035084;28;20320;-68
2022/10/08 07:13:56;;;;;;;25.50;13.27;;;;;;;;;;5031759;28;20206;-68
2022/10/08 07:16:24;;;;;;;29.08;12.73;;;;;;;;;;5026798;28;20530;-67
2022/10/08 07:18:50;;;;;;;21.05;12.35;;;;;;;;;;5026556;28;20708;-67
2022/10/08 07:21:18;;;;;;;25.42;12.68;;;;;;;;;;5030126;28;20202;-68
2022/10/08 07:23:43;;;;;;;26.80;12.50;;;;;;;;;;5028707;28;20709;-68
2022/10/08 07:26:13;;;;;;;22.02;12.50;;;;;;;;;;5028958;28;20285;-69
2022/10/08 07:28:42;;;;;;;21.58;10.93;;;;;;;;;;5029935;28;20565;-68
2022/10/08 07:31:12;;;;;;;19.20;10.43;;;;;;;;;;5031828;28;20293;-68
2022/10/08 07:33:39;;;;;;;18.23;9.93;;;;;;;;;;5028883;28;20201;-69
2022/10/08 07:36:14;;;;;;;20.00;10.48;;;;;;;;;;5028942;28;20174;-68
2022/10/08 07:38:40;;;;;;;23.40;10.52;;;;;;;;;;5028565;28;20174;-68
2022/10/08 07:41:07;;;;;;;13.40;8.45;;;;;;;;;;5032429;28;20256;-69
2022/10/08 07:43:32;;;;;;;18.60;9.80;;;;;;;;;;5031523;28;20587;-69
2022/10/08 07:45:58;;;;;;;22.27;9.57;;;;;;;;;;5026678;28;20185;-69
2022/10/08 07:48:23;;;;;;;19.25;8.95;;;;;;;;;;5027821;28;20188;-68
2022/10/08 07:50:48;;;;;;;15.43;7.78;;;;;;;;;;5030226;28;20549;-68
2022/10/08 07:53:15;;;;;;;18.88;7.07;;;;;;;;;;5036903;28;20208;-68
2022/10/08 07:55:40;;;;;;;14.10;6.22;;;;;;;;;;5034209;28;20210;-68
2022/10/08 07:58:06;;;;;;;13.20;6.20;;;;;;;;;;5035853;28;20205;-68
2022/10/08 08:00:31;;;;;;;11.75;5.50;;;;;;;;;;5029254;28;20232;-68
2022/10/08 08:02:56;;;;;;;14.32;5.43;;;;;;;;;;5035424;28;20194;-68
2022/10/08 08:05:22;;;;;;;10.52;5.15;;;;;;;;;;5035667;28;20673;-67
2022/10/08 08:07:47;;;;;;;13.82;5.15;;;;;;;;;;5032377;28;20693;-68
2022/10/08 08:10:13;;;;;;;8.48;4.50;;;;;;;;;;5035350;28;20177;-68
2022/10/08 08:12:38;;;;;;;7.35;4.15;;;;;;;;;;5037841;28;20339;-68
2022/10/08 08:15:04;;;;;;;9.80;3.42;;;;;;;;;;5031987;28;20178;-68
2022/10/08 08:17:29;;;;;;;8.68;3.42;;;;;;;;;;5032845;28;20529;-68
2022/10/08 08:19:54;;;;;;;11.15;3.53;;;;;;;;;;5033987;28;20229;-68
2022/10/08 08:22:20;;;;;;;8.10;2.78;;;;;;;;;;5038684;28;20205;-68
2022/10/08 08:24:45;;;;;;;11.50;3.50;;;;;;;;;;5034544;28;20190;-68
2022/10/08 08:27:10;;;;;;;6.25;2.97;;;;;;;;;;5031973;28;20797;-69
2022/10/08 08:29:36;;;;;;;8.23;2.70;;;;;;;;;;5035463;28;20642;-68
2022/10/08 08:32:01;;;;;;;10.02;2.40;;;;;;;;;;5034532;28;20238;-68
2022/10/08 08:34:26;;;;;;;16.42;2.88;;;;;;;;;;5035599;28;20181;-68
2022/10/08 08:36:52;;;;;;;12.63;2.67;;;;;;;;;;5036878;28;20266;-67
2022/10/08 08:39:26;;;;;;;7.63;1.83;;;;;;;;;;5032566;28;20182;-68
2022/10/08 08:41:59;;;;;;;9.38;1.83;;;;;;;;;;5036206;28;20194;-68
2022/10/08 08:44:31;;;;;;;9.00;1.70;;;;;;;;;;5035185;28;20257;-69
2022/10/08 08:47:05;;;;;;;7.97;1.75;;;;;;;;;;5037263;28;20235;-68
2022/10/08 08:49:37;;;;;;;7.03;1.50;;;;;;;;;;5035690;28;20239;-69
2022/10/08 08:52:05;;;;;;;7.32;1.20;;;;;;;;;;5032530;28;20526;-68
2022/10/08 08:54:30;;;;;;;6.90;1.23;;;;;;;;;;5031581;28;20189;-68
2022/10/08 08:57:25;;;;;;;5.03;1.00;;;;;;;;;;5031114;28;21833;-68
2022/10/08 08:59:55;;;;;;;8.68;1.50;;;;;;;;;;5029801;28;20216;-70
2022/10/08 09:02:33;;;;;;;10.23;1.40;;;;;;;;;;5033950;28;20304;-68
2022/10/08 09:05:13;;;;;;;8.73;1.30;;;;;;;;;;5035993;28;20181;-68
2022/10/08 09:07:46;;;;;;;7.07;0.88;;;;;;;;;;5034674;28;20661;-68
2022/10/08 09:10:18;;;;;;;9.88;1.10;;;;;;;;;;5034687;28;20198;-68
2022/10/08 09:12:43;;;;;;;7.97;1.25;;;;;;;;;;5031281;28;20212;-68
2022/10/08 09:15:17;;;;;;;6.32;1.30;;;;;;;;;;5029893;28;20182;-68
2022/10/08 09:17:44;;;;;;;8.88;1.17;;;;;;;;;;5032280;28;20711;-68
2022/10/08 09:20:15;;;;;;;6.10;1.20;;;;;;;;;;5029729;28;20194;-67
2022/10/08 09:22:41;;;;;;;9.75;1.60;;;;;;;;;;5029139;28;20769;-68
2022/10/08 09:25:21;;;;;;;8.48;1.30;;;;;;;;;;5028905;28;20272;-68
2022/10/08 09:27:52;;;;;;;6.88;1.05;;;;;;;;;;5039350;28;20189;-68
2022/10/08 09:30:23;;;;;;;7.20;1.40;;;;;;;;;;5037030;28;20284;-68
2022/10/08 09:32:53;;;;;;;5.32;0.90;;;;;;;;;;5031603;28;20208;-68
2022/10/08 09:35:18;;;;;;;5.85;1.05;;;;;;;;;;5036449;28;20181;-69
2022/10/08 09:37:45;;;;;;;6.70;1.08;;;;;;;;;;5035194;28;20517;-68
2022/10/08 09:40:11;;;;;;;9.40;1.25;;;;;;;;;;5037685;28;20198;-68
2022/10/08 09:42:36;;;;;;;6.88;1.00;;;;;;;;;;5040432;28;20182;-69
2022/10/08 09:45:22;;;;;;;10.00;0.93;;;;;;;;;;5041812;28;20553;-68
2022/10/08 09:48:17;;;;;;;8.90;1.20;;;;;;;;;;5037623;28;20631;-68
2022/10/08 09:51:11;;;;;;;4.60;1.05;;;;;;;;;;5030001;28;20214;-68
2022/10/08 09:53:43;;;;;;;9.18;1.63;;;;;;;;;;5035403;28;20296;-68
2022/10/08 09:56:11;;;;;;;8.30;1.30;;;;;;;;;;5038740;28;20541;-68
2022/10/08 09:58:48;;;;;;;9.75;1.30;;;;;;;;;;5030921;28;20650;-68
2022/10/08 10:01:15;;;;;;;5.57;1.00;;;;;;;;;;5028058;28;20216;-67
2022/10/08 10:03:53;;;;;;;10.05;1.55;;;;;;;;;;5030797;28;20260;-69
2022/10/08 10:06:36;;;;;;;10.10;1.20;;;;;;;;;;5030405;28;20261;-69
2022/10/08 10:09:21;;;;;;;5.20;1.02;;;;;;;;;;5031401;28;20193;-69
2022/10/08 10:11:51;;;;;;;7.35;1.30;;;;;;;;;;5034500;28;20182;-68
2022/10/08 10:14:24;;;;;;;6.68;1.02;;;;;;;;;;5029329;28;20216;-69
2022/10/08 10:16:57;;;;;;;5.28;0.85;;;;;;;;;;5032522;28;20213;-69
2022/10/08 10:19:28;;;;;;;3.90;0.90;;;;;;;;;;5030250;28;20235;-67
2022/10/08 10:22:06;;;;;;;6.75;0.75;;;;;;;;;;5034057;28;20251;-67
2022/10/08 10:25:04;;;;;;;9.85;0.90;;;;;;;;;;5028330;28;20174;-67
2022/10/08 10:27:51;;;;;;;6.50;1.00;;;;;;;;;;5028454;28;20233;-68
2022/10/08 10:30:21;;;;;;;4.18;0.73;;;;;;;;;;5032446;28;20693;-68
2022/10/08 10:33:17;;;;;;;7.63;1.27;;;;;;;;;;5031740;28;20209;-68
2022/10/08 10:35:48;;;;;;;6.70;1.50;;;;;;;;;;5027767;28;20206;-70
2022/10/08 10:38:22;;;;;;;4.95;0.98;;;;;;;;;;5034040;28;20192;-68
2022/10/08 10:40:54;;;;;;;5.78;0.88;;;;;;;;;;5034931;28;20247;-68
2022/10/08 10:43:38;;;;;;;8.70;1.25;;;;;;;;;;5041154;28;20221;-69
2022/10/08 10:46:17;;;;;;;4.78;0.90;;;;;;;;;;5034010;28;20189;-68
2022/10/08 10:48:42;;;;;;;5.80;1.00;;;;;;;;;;5031505;28;20186;-69
2022/10/08 10:51:32;;;;;;;6.15;0.82;;;;;;;;;;5029766;28;20694;-67
2022/10/08 10:54:30;;;;;;;8.68;1.27;;;;;;;;;;5028035;28;20197;-69
2022/10/08 10:57:04;;;;;;;6.47;1.08;;;;;;;;;;5027800;28;20185;-68
2022/10/08 10:59:36;;;;;;;5.25;1.10;;;;;;;;;;5035494;28;20184;-68
2022/10/08 11:02:21;;;;;;;9.05;1.30;;;;;;;;;;5032128;28;20177;-68
2022/10/08 11:05:00;;;;;;;5.72;1.00;;;;;;;;;;5028514;28;20224;-68
2022/10/08 11:07:39;;;;;;;8.02;1.20;;;;;;;;;;5033760;28;20723;-67
2022/10/08 11:10:08;;;;;;;8.00;1.17;;;;;;;;;;5038595;28;20186;-68
2022/10/08 11:12:42;;;;;;;5.30;1.05;;;;;;;;;;5044040;28;20208;-68
2022/10/08 11:15:28;;;;;;;9.10;1.52;;;;;;;;;;5039732;28;20232;-67
2022/10/08 11:18:06;;;;;;;4.15;0.90;;;;;;;;;;5022860;28;20208;-67
2022/10/08 11:20:43;;;;;;;5.50;1.10;;;;;;;;;;5036010;28;20247;-67
2022/10/08 11:23:31;;;;;;;5.65;1.10;;;;;;;;;;5030734;28;20280;-67
2022/10/08 11:25:59;;;;;;;5.05;1.00;;;;;;;;;;5041470;28;20181;-68
2022/10/08 11:28:53;;;;;;;6.65;1.20;;;;;;;;;;5035477;28;20269;-70
2022/10/08 11:31:32;;;;;;;6.80;1.08;;;;;;;;;;5039502;28;20363;-70
2022/10/08 11:33:57;;;;;;;6.07;0.80;;;;;;;;;;5038116;28;20185;-74
2022/10/08 11:36:46;;;;;;;4.22;0.90;;;;;;;;;;5033112;28;20202;-70
2022/10/08 11:39:19;;;;;;;7.00;1.40;;;;;;;;;;5039131;28;20195;-70
2022/10/08 11:41:57;;;;;;;5.85;1.20;;;;;;;;;;5035539;28;20558;-72
2022/10/08 11:44:25;;;;;;;6.80;1.50;;;;;;;;;;5031437;28;20266;-72
2022/10/08 11:46:50;;;;;;;3.67;1.25;;;;;;;;;;5038344;28;20177;-71
2022/10/08 11:49:16;;;;;;;7.35;1.52;;;;;;;;;;5035408;28;20174;-72
2022/10/08 11:51:52;;;;;;;12.27;2.00;;;;;;;;;;5036236;28;20186;-72
2022/10/08 11:54:29;;;;;;;11.23;1.40;;;;;;;;;;5031528;28;20181;-69
2022/10/08 11:57:36;;;;;;;7.30;1.10;;;;;;;;;;5034830;28;20470;-70
2022/10/08 12:00:22;;;;;;;9.70;1.38;;;;;;;;;;5023801;28;20534;-68
2022/10/08 12:02:51;;;;;;;10.30;1.38;;;;;;;;;;5035983;28;20198;-67
2022/10/08 12:05:43;;;;;;;7.75;1.20;;;;;;;;;;5040306;28;20692;-68
2022/10/08 12:08:08;;;;;;;8.13;1.20;;;;;;;;;;5034896;28;20177;-70
2022/10/08 12:10:37;;;;;;;11.57;2.72;;;;;;;;;;5030249;28;20614;-68
2022/10/08 12:13:08;;;;;;;4.05;1.15;;;;;;;;;;5041021;28;20462;-67
2022/10/08 12:15:37;;;;;;;7.85;1.17;;;;;;;;;;5031790;28;20548;-68
2022/10/08 12:18:26;;;;;;;7.63;1.20;;;;;;;;;;5033896;28;20197;-67
2022/10/08 12:21:16;;;;;;;5.40;1.42;;;;;;;;;;5030269;28;20716;-67
2022/10/08 12:23:42;;;;;;;13.68;1.40;;;;;;;;;;5029851;28;20189;-67
2022/10/08 12:26:10;;;;;;;11.23;1.67;;;;;;;;;;5037677;28;20181;-69
2022/10/08 12:28:49;;;;;;;7.15;1.40;;;;;;;;;;5036899;28;20273;-68
2022/10/08 12:31:40;;;;;;;6.50;1.17;;;;;;;;;;5033396;28;20737;-66
2022/10/08 12:34:18;;;;;;;9.73;1.67;;;;;;;;;;5027027;28;20194;-67
2022/10/08 12:36:50;;;;;;;8.57;1.40;;;;;;;;;;5030234;28;20181;-67
2022/10/08 12:39:28;;;;;;;9.98;1.25;;;;;;;;;;5038791;28;20511;-68
2022/10/08 12:42:06;;;;;;;9.80;1.30;;;;;;;;;;5038034;28;20259;-67
2022/10/08 12:45:02;;;;;;;9.85;1.00;;;;;;;;;;5028285;28;20181;-68
2022/10/08 12:48:02;;;;;;;7.43;1.42;;;;;;;;;;5029342;28;20521;-66
2022/10/08 12:50:59;;;;;;;8.32;0.95;;;;;;;;;;5031323;28;20232;-67
2022/10/08 12:53:25;;;;;;;9.57;1.67;;;;;;;;;;5032562;28;20723;-67
2022/10/08 12:55:56;;;;;;;10.80;1.30;;;;;;;;;;5030584;28;20208;-67
2022/10/08 12:58:25;;;;;;;9.13;1.60;;;;;;;;;;5044062;28;20268;-67
2022/10/08 13:00:55;;;;;;;11.00;1.30;;;;;;;;;;5033637;28;20197;-68
2022/10/08 13:03:20;;;;;;;9.40;1.60;;;;;;;;;;5043923;28;20189;-68
2022/10/08 13:05:48;;;;;;;11.18;1.42;;;;;;;;;;5040996;28;20556;-68
2022/10/08 13:08:33;;;;;;;10.90;1.20;;;;;;;;;;5034450;28;20175;-67
2022/10/08 13:11:17;;;;;;;5.60;0.90;;;;;;;;;;5043467;28;20213;-69
2022/10/08 13:13:48;;;;;;;8.70;1.65;;;;;;;;;;5036162;28;20211;-67
2022/10/08 13:16:19;;;;;;;9.52;0.98;;;;;;;;;;5041807;28;20178;-66
2022/10/08 13:18:57;;;;;;;7.88;1.02;;;;;;;;;;5027621;28;20194;-66
2022/10/08 13:21:31;;;;;;;11.30;1.33;;;;;;;;;;5040393;28;20260;-68
2022/10/08 13:24:02;;;;;;;9.43;1.27;;;;;;;;;;5040990;28;20274;-68
2022/10/08 13:26:48;;;;;;;5.28;1.10;;;;;;;;;;5040558;28;20235;-67
2022/10/08 13:29:20;;;;;;;6.55;1.17;;;;;;;;;;5037509;28;20507;-68
2022/10/08 13:32:25;;;;;;;7.68;1.25;;;;;;;;;;5036099;28;20705;-70
2022/10/08 13:34:57;;;;;;;10.45;1.35;;;;;;;;;;5031517;28;20257;-67
2022/10/08 13:37:35;;;;;;;7.88;1.10;;;;;;;;;;5035516;28;20186;-67
2022/10/08 13:40:09;;;;;;;7.82;1.05;;;;;;;;;;5039584;28;20193;-71
2022/10/08 13:42:42;;;;;;;10.13;1.17;;;;;;;;;;5033998;28;20665;-68
2022/10/08 13:45:14;;;;;;;8.43;1.20;;;;;;;;;;5036127;28;20610;-68
2022/10/08 13:47:40;;;;;;;8.00;1.30;;;;;;;;;;5034059;28;20221;-68
2022/10/08 13:50:06;;;;;;;8.43;1.20;;;;;;;;;;5033746;28;20202;-67
2022/10/08 13:52:33;;;;;;;6.07;1.08;;;;;;;;;;5044999;28;20614;-69
2022/10/08 13:55:05;;;;;;;6.45;0.98;;;;;;;;;;5039135;28;20192;-67
2022/10/08 13:57:30;;;;;;;7.30;1.25;;;;;;;;;;5039645;28;20243;-67
2022/10/08 13:59:56;;;;;;;7.30;1.05;;;;;;;;;;5037172;28;20206;-68
2022/10/08 14:02:21;;;;;;;7.97;1.23;;;;;;;;;;5039492;28;20280;-67
2022/10/08 14:04:47;;;;;;;12.55;1.30;;;;;;;;;;5032378;28;20240;-66
2022/10/08 14:07:17;;;;;;;8.70;1.10;;;;;;;;;;5030122;28;20189;-67
2022/10/08 14:09:42;;;;;;;4.28;1.17;;;;;;;;;;5038393;28;20277;-67
2022/10/08 14:12:08;;;;;;;6.93;1.10;;;;;;;;;;5037094;28;20704;-67
2022/10/08 14:14:33;;;;;;;4.82;0.82;;;;;;;;;;5044588;28;20219;-67
2022/10/08 14:16:58;;;;;;;9.88;1.45;;;;;;;;;;5043966;28;20221;-68
2022/10/08 14:19:24;;;;;;;8.10;1.30;;;;;;;;;;5035921;28;20227;-68
2022/10/08 14:21:53;;;;;;;6.53;1.20;;;;;;;;;;5034865;28;20213;-68
2022/10/08 14:24:19;;;;;;;5.95;1.40;;;;;;;;;;5036737;28;20591;-67
2022/10/08 14:26:44;;;;;;;6.63;1.20;;;;;;;;;;5035700;28;20221;-68
2022/10/08 14:29:10;;;;;;;9.93;1.50;;;;;;;;;;5033262;28;20182;-67
2022/10/08 14:31:35;;;;;;;8.25;1.60;;;;;;;;;;5031159;28;20229;-66
2022/10/08 14:34:00;;;;;;;8.95;1.27;;;;;;;;;;5038229;28;20184;-67
2022/10/08 14:36:35;;;;;;;5.90;1.15;;;;;;;;;;5033177;28;20252;-67
2022/10/08 14:39:01;;;;;;;6.78;1.30;;;;;;;;;;5028685;28;20189;-67
2022/10/08 14:41:26;;;;;;;7.82;1.23;;;;;;;;;;5035166;28;20225;-66
2022/10/08 14:43:51;;;;;;;6.30;2.13;;;;;;;;;;5048360;28;20707;-67
2022/10/08 14:46:17;;;;;;;6.35;1.55;;;;;;;;;;5036865;28;20200;-67
2022/10/08 14:48:43;;;;;;;11.30;1.60;;;;;;;;;;5033223;28;20672;-68
2022/10/08 14:51:08;;;;;;;4.68;1.02;;;;;;;;;;5034713;28;20239;-67
2022/10/08 14:53:33;;;;;;;6.85;1.08;;;;;;;;;;5037651;28;20177;-67
2022/10/08 14:55:59;;;;;;;4.80;1.65;;;;;;;;;;5037204;28;20209;-68